sensor_id;sensor_type;location;lat;lon;timestamp;P1;durP1;ratioP1;P2;durP2;ratioP2
77423;SDS011;66494;47.172;14.678;2024-02-28T00:00:44;3.13;;;1.42;;
77423;SDS011;66494;47.172;14.678;2024-02-28T00:01:48;2.35;;;1.38;;
77423;SDS011;66494;47.172;14.678;2024-02-28T00:02:48;2.22;;;1.30;;
77423;SDS011;66494;47.172;14.678;2024-02-28T00:04:49;2.67;;;1.73;;
77423;SDS011;66494;47.172;14.678;2024-02-28T00:06:49;1.80;;;0.98;;
77423;SDS011;66494;47.172;14.678;2024-02-28T00:08:50;1.08;;;1.00;;
77423;SDS011;66494;47.172;14.678;2024-02-28T00:09:51;1.55;;;1.00;;
77423;SDS011;66494;47.172;14.678;2024-02-28T00:10:51;1.02;;;0.73;;
77423;SDS011;66494;47.172;14.678;2024-02-28T00:11:51;2.78;;;1.63;;
77423;SDS011;66494;47.172;14.678;2024-02-28T00:12:51;3.25;;;1.98;;
77423;SDS011;66494;47.172;14.678;2024-02-28T00:13:51;3.20;;;1.90;;
77423;SDS011;66494;47.172;14.678;2024-02-28T00:15:53;1.70;;;1.03;;
77423;SDS011;66494;47.172;14.678;2024-02-28T00:16:53;3.15;;;2.03;;
77423;SDS011;66494;47.172;14.678;2024-02-28T00:17:54;2.55;;;1.25;;
77423;SDS011;66494;47.172;14.678;2024-02-28T00:18:54;3.58;;;1.90;;
77423;SDS011;66494;47.172;14.678;2024-02-28T00:20:55;1.98;;;1.13;;
77423;SDS011;66494;47.172;14.678;2024-02-28T00:21:55;3.35;;;1.70;;
77423;SDS011;66494;47.172;14.678;2024-02-28T00:22:56;4.53;;;1.20;;
77423;SDS011;66494;47.172;14.678;2024-02-28T00:23:56;2.85;;;1.90;;
77423;SDS011;66494;47.172;14.678;2024-02-28T00:25:56;3.05;;;1.52;;
77423;SDS011;66494;47.172;14.678;2024-02-28T00:26:57;2.42;;;1.27;;
77423;SDS011;66494;47.172;14.678;2024-02-28T00:27:57;6.22;;;1.40;;
77423;SDS011;66494;47.172;14.678;2024-02-28T00:28:57;1.55;;;1.15;;
77423;SDS011;66494;47.172;14.678;2024-02-28T00:29:57;1.88;;;1.25;;
77423;SDS011;66494;47.172;14.678;2024-02-28T00:30:57;2.42;;;1.65;;
77423;SDS011;66494;47.172;14.678;2024-02-28T00:31:58;2.00;;;1.40;;
77423;SDS011;66494;47.172;14.678;2024-02-28T00:32:59;2.00;;;1.42;;
77423;SDS011;66494;47.172;14.678;2024-02-28T00:33:59;1.55;;;1.10;;
77423;SDS011;66494;47.172;14.678;2024-02-28T00:34:59;3.05;;;1.83;;
77423;SDS011;66494;47.172;14.678;2024-02-28T00:35:59;2.17;;;1.17;;
77423;SDS011;66494;47.172;14.678;2024-02-28T00:37:00;3.30;;;1.98;;
77423;SDS011;66494;47.172;14.678;2024-02-28T00:39:00;2.10;;;0.93;;
77423;SDS011;66494;47.172;14.678;2024-02-28T00:41:00;2.55;;;1.05;;
77423;SDS011;66494;47.172;14.678;2024-02-28T00:43:01;1.35;;;1.05;;
77423;SDS011;66494;47.172;14.678;2024-02-28T00:45:01;1.75;;;1.10;;
77423;SDS011;66494;47.172;14.678;2024-02-28T00:47:03;3.13;;;2.25;;
77423;SDS011;66494;47.172;14.678;2024-02-28T00:49:04;1.42;;;0.85;;
77423;SDS011;66494;47.172;14.678;2024-02-28T00:51:04;1.67;;;1.20;;
77423;SDS011;66494;47.172;14.678;2024-02-28T00:53:05;2.17;;;1.48;;
77423;SDS011;66494;47.172;14.678;2024-02-28T00:54:05;2.30;;;1.27;;
77423;SDS011;66494;47.172;14.678;2024-02-28T00:55:05;1.80;;;1.30;;
77423;SDS011;66494;47.172;14.678;2024-02-28T00:56:06;1.80;;;1.20;;
77423;SDS011;66494;47.172;14.678;2024-02-28T00:57:06;2.72;;;1.70;;
77423;SDS011;66494;47.172;14.678;2024-02-28T00:58:07;3.97;;;1.63;;
77423;SDS011;66494;47.172;14.678;2024-02-28T00:59:07;2.53;;;1.13;;
77423;SDS011;66494;47.172;14.678;2024-02-28T01:00:11;2.22;;;1.52;;
77423;SDS011;66494;47.172;14.678;2024-02-28T01:01:11;3.03;;;1.00;;
77423;SDS011;66494;47.172;14.678;2024-02-28T01:03:12;6.95;;;1.42;;
77423;SDS011;66494;47.172;14.678;2024-02-28T01:04:14;2.22;;;1.13;;
77423;SDS011;66494;47.172;14.678;2024-02-28T01:05:15;1.92;;;1.20;;
77423;SDS011;66494;47.172;14.678;2024-02-28T01:07:16;1.98;;;1.13;;
77423;SDS011;66494;47.172;14.678;2024-02-28T01:08:17;1.90;;;1.02;;
77423;SDS011;66494;47.172;14.678;2024-02-28T01:09:17;3.95;;;1.27;;
77423;SDS011;66494;47.172;14.678;2024-02-28T01:10:19;2.22;;;1.42;;
77423;SDS011;66494;47.172;14.678;2024-02-28T01:11:19;2.67;;;1.63;;
77423;SDS011;66494;47.172;14.678;2024-02-28T01:12:19;1.70;;;1.08;;
77423;SDS011;66494;47.172;14.678;2024-02-28T01:13:19;2.15;;;1.00;;
77423;SDS011;66494;47.172;14.678;2024-02-28T01:14:20;1.88;;;1.10;;
77423;SDS011;66494;47.172;14.678;2024-02-28T01:15:20;2.15;;;1.10;;
77423;SDS011;66494;47.172;14.678;2024-02-28T01:16:20;1.83;;;1.52;;
77423;SDS011;66494;47.172;14.678;2024-02-28T01:17:20;3.22;;;1.42;;
77423;SDS011;66494;47.172;14.678;2024-02-28T01:18:21;2.63;;;0.98;;
77423;SDS011;66494;47.172;14.678;2024-02-28T01:19:22;3.90;;;1.48;;
77423;SDS011;66494;47.172;14.678;2024-02-28T01:20:22;1.27;;;0.98;;
77423;SDS011;66494;47.172;14.678;2024-02-28T01:21:22;3.97;;;1.35;;
77423;SDS011;66494;47.172;14.678;2024-02-28T01:22:22;0.80;;;0.70;;
77423;SDS011;66494;47.172;14.678;2024-02-28T01:23:23;1.25;;;0.95;;
77423;SDS011;66494;47.172;14.678;2024-02-28T01:25:23;1.60;;;0.82;;
77423;SDS011;66494;47.172;14.678;2024-02-28T01:26:23;4.53;;;1.13;;
77423;SDS011;66494;47.172;14.678;2024-02-28T01:28:24;1.23;;;0.63;;
77423;SDS011;66494;47.172;14.678;2024-02-28T01:30:24;3.05;;;1.27;;
77423;SDS011;66494;47.172;14.678;2024-02-28T01:32:24;1.40;;;0.70;;
77423;SDS011;66494;47.172;14.678;2024-02-28T01:33:25;2.50;;;0.95;;
77423;SDS011;66494;47.172;14.678;2024-02-28T01:34:25;2.70;;;1.13;;
77423;SDS011;66494;47.172;14.678;2024-02-28T01:35:25;1.98;;;1.00;;
77423;SDS011;66494;47.172;14.678;2024-02-28T01:36:25;1.45;;;0.85;;
77423;SDS011;66494;47.172;14.678;2024-02-28T01:37:26;1.73;;;1.00;;
77423;SDS011;66494;47.172;14.678;2024-02-28T01:38:26;2.38;;;1.38;;
77423;SDS011;66494;47.172;14.678;2024-02-28T01:40:27;1.77;;;1.40;;
77423;SDS011;66494;47.172;14.678;2024-02-28T01:41:27;2.42;;;1.10;;
77423;SDS011;66494;47.172;14.678;2024-02-28T01:43:27;1.35;;;0.90;;
77423;SDS011;66494;47.172;14.678;2024-02-28T01:44:28;3.15;;;1.10;;
77423;SDS011;66494;47.172;14.678;2024-02-28T01:45:28;2.10;;;1.45;;
77423;SDS011;66494;47.172;14.678;2024-02-28T01:46:28;2.55;;;1.20;;
77423;SDS011;66494;47.172;14.678;2024-02-28T01:48:29;1.35;;;0.80;;
77423;SDS011;66494;47.172;14.678;2024-02-28T01:49:30;1.88;;;1.15;;
77423;SDS011;66494;47.172;14.678;2024-02-28T01:50:30;1.92;;;1.00;;
77423;SDS011;66494;47.172;14.678;2024-02-28T01:51:30;1.58;;;1.15;;
77423;SDS011;66494;47.172;14.678;2024-02-28T01:52:30;1.80;;;1.00;;
77423;SDS011;66494;47.172;14.678;2024-02-28T01:53:31;4.80;;;1.45;;
77423;SDS011;66494;47.172;14.678;2024-02-28T01:54:31;1.77;;;1.35;;
77423;SDS011;66494;47.172;14.678;2024-02-28T01:55:32;5.90;;;1.10;;
77423;SDS011;66494;47.172;14.678;2024-02-28T01:56:33;3.67;;;1.17;;
77423;SDS011;66494;47.172;14.678;2024-02-28T01:57:34;2.00;;;1.15;;
77423;SDS011;66494;47.172;14.678;2024-02-28T01:58:37;1.50;;;0.63;;
77423;SDS011;66494;47.172;14.678;2024-02-28T01:59:37;2.63;;;1.20;;
77423;SDS011;66494;47.172;14.678;2024-02-28T02:00:37;1.92;;;1.25;;
77423;SDS011;66494;47.172;14.678;2024-02-28T02:01:38;1.45;;;0.90;;
77423;SDS011;66494;47.172;14.678;2024-02-28T02:02:38;1.75;;;0.90;;
77423;SDS011;66494;47.172;14.678;2024-02-28T02:04:39;2.05;;;1.20;;
77423;SDS011;66494;47.172;14.678;2024-02-28T02:06:41;2.00;;;1.00;;
77423;SDS011;66494;47.172;14.678;2024-02-28T02:07:42;1.67;;;1.25;;
77423;SDS011;66494;47.172;14.678;2024-02-28T02:08:43;2.28;;;0.90;;
77423;SDS011;66494;47.172;14.678;2024-02-28T02:09:43;5.57;;;1.27;;
77423;SDS011;66494;47.172;14.678;2024-02-28T02:10:43;2.08;;;1.20;;
77423;SDS011;66494;47.172;14.678;2024-02-28T02:12:44;1.92;;;1.05;;
77423;SDS011;66494;47.172;14.678;2024-02-28T02:13:50;2.15;;;1.25;;
77423;SDS011;66494;47.172;14.678;2024-02-28T02:14:51;1.88;;;0.85;;
77423;SDS011;66494;47.172;14.678;2024-02-28T02:15:51;1.65;;;0.57;;
77423;SDS011;66494;47.172;14.678;2024-02-28T02:17:51;2.85;;;1.27;;
77423;SDS011;66494;47.172;14.678;2024-02-28T02:19:52;2.83;;;0.95;;
77423;SDS011;66494;47.172;14.678;2024-02-28T02:20:58;1.83;;;0.70;;
77423;SDS011;66494;47.172;14.678;2024-02-28T02:22:00;1.20;;;0.90;;
77423;SDS011;66494;47.172;14.678;2024-02-28T02:23:03;1.83;;;0.93;;
77423;SDS011;66494;47.172;14.678;2024-02-28T02:25:03;1.52;;;0.82;;
77423;SDS011;66494;47.172;14.678;2024-02-28T02:26:04;1.95;;;0.80;;
77423;SDS011;66494;47.172;14.678;2024-02-28T02:27:04;0.90;;;0.70;;
77423;SDS011;66494;47.172;14.678;2024-02-28T02:28:05;1.83;;;1.00;;
77423;SDS011;66494;47.172;14.678;2024-02-28T02:29:05;2.47;;;1.10;;
77423;SDS011;66494;47.172;14.678;2024-02-28T02:30:06;1.20;;;0.90;;
77423;SDS011;66494;47.172;14.678;2024-02-28T02:32:06;2.53;;;1.20;;
77423;SDS011;66494;47.172;14.678;2024-02-28T02:34:07;3.90;;;1.05;;
77423;SDS011;66494;47.172;14.678;2024-02-28T02:35:07;1.48;;;1.15;;
77423;SDS011;66494;47.172;14.678;2024-02-28T02:37:08;3.35;;;0.70;;
77423;SDS011;66494;47.172;14.678;2024-02-28T02:39:09;1.03;;;0.43;;
77423;SDS011;66494;47.172;14.678;2024-02-28T02:40:09;1.48;;;0.93;;
77423;SDS011;66494;47.172;14.678;2024-02-28T02:41:10;1.95;;;1.10;;
77423;SDS011;66494;47.172;14.678;2024-02-28T02:42:10;2.03;;;1.17;;
77423;SDS011;66494;47.172;14.678;2024-02-28T02:43:13;2.97;;;1.00;;
77423;SDS011;66494;47.172;14.678;2024-02-28T02:44:14;3.45;;;1.20;;
77423;SDS011;66494;47.172;14.678;2024-02-28T02:45:14;3.67;;;1.35;;
77423;SDS011;66494;47.172;14.678;2024-02-28T02:46:14;3.05;;;1.23;;
77423;SDS011;66494;47.172;14.678;2024-02-28T02:48:15;1.45;;;0.70;;
77423;SDS011;66494;47.172;14.678;2024-02-28T02:50:16;1.85;;;1.08;;
77423;SDS011;66494;47.172;14.678;2024-02-28T02:52:18;1.02;;;0.75;;
77423;SDS011;66494;47.172;14.678;2024-02-28T02:54:19;1.40;;;0.85;;
77423;SDS011;66494;47.172;14.678;2024-02-28T02:55:19;1.50;;;0.70;;
77423;SDS011;66494;47.172;14.678;2024-02-28T02:56:19;1.83;;;0.95;;
77423;SDS011;66494;47.172;14.678;2024-02-28T02:58:20;2.00;;;1.05;;
77423;SDS011;66494;47.172;14.678;2024-02-28T02:59:20;2.65;;;1.20;;
77423;SDS011;66494;47.172;14.678;2024-02-28T03:01:22;1.00;;;0.43;;
77423;SDS011;66494;47.172;14.678;2024-02-28T03:02:22;2.92;;;0.70;;
77423;SDS011;66494;47.172;14.678;2024-02-28T03:03:22;0.77;;;0.43;;
77423;SDS011;66494;47.172;14.678;2024-02-28T03:04:22;2.53;;;1.13;;
77423;SDS011;66494;47.172;14.678;2024-02-28T03:05:22;1.75;;;0.82;;
77423;SDS011;66494;47.172;14.678;2024-02-28T03:06:23;1.80;;;1.00;;
77423;SDS011;66494;47.172;14.678;2024-02-28T03:07:24;2.53;;;1.60;;
77423;SDS011;66494;47.172;14.678;2024-02-28T03:08:24;1.15;;;0.70;;
77423;SDS011;66494;47.172;14.678;2024-02-28T03:09:24;1.98;;;0.98;;
77423;SDS011;66494;47.172;14.678;2024-02-28T03:10:24;1.88;;;0.80;;
77423;SDS011;66494;47.172;14.678;2024-02-28T03:11:25;3.42;;;0.93;;
77423;SDS011;66494;47.172;14.678;2024-02-28T03:12:25;3.22;;;1.05;;
77423;SDS011;66494;47.172;14.678;2024-02-28T03:13:25;2.17;;;1.33;;
77423;SDS011;66494;47.172;14.678;2024-02-28T03:15:27;1.55;;;1.00;;
77423;SDS011;66494;47.172;14.678;2024-02-28T03:17:29;1.40;;;0.88;;
77423;SDS011;66494;47.172;14.678;2024-02-28T03:19:29;1.70;;;0.75;;
77423;SDS011;66494;47.172;14.678;2024-02-28T03:21:30;1.90;;;0.57;;
77423;SDS011;66494;47.172;14.678;2024-02-28T03:22:30;1.48;;;0.88;;
77423;SDS011;66494;47.172;14.678;2024-02-28T03:23:31;3.63;;;1.00;;
77423;SDS011;66494;47.172;14.678;2024-02-28T03:25:32;1.93;;;1.07;;
77423;SDS011;66494;47.172;14.678;2024-02-28T03:27:32;0.90;;;0.52;;
77423;SDS011;66494;47.172;14.678;2024-02-28T03:28:32;1.83;;;0.80;;
77423;SDS011;66494;47.172;14.678;2024-02-28T03:30:33;1.90;;;1.10;;
77423;SDS011;66494;47.172;14.678;2024-02-28T03:32:33;0.70;;;0.50;;
77423;SDS011;66494;47.172;14.678;2024-02-28T03:33:33;1.92;;;0.95;;
77423;SDS011;66494;47.172;14.678;2024-02-28T03:34:35;2.80;;;1.38;;
77423;SDS011;66494;47.172;14.678;2024-02-28T03:35:35;2.47;;;1.30;;
77423;SDS011;66494;47.172;14.678;2024-02-28T03:37:35;0.63;;;0.43;;
77423;SDS011;66494;47.172;14.678;2024-02-28T03:39:36;2.00;;;0.60;;
77423;SDS011;66494;47.172;14.678;2024-02-28T03:41:37;3.08;;;0.82;;
77423;SDS011;66494;47.172;14.678;2024-02-28T03:42:37;1.88;;;1.02;;
77423;SDS011;66494;47.172;14.678;2024-02-28T03:43:37;1.55;;;0.52;;
77423;SDS011;66494;47.172;14.678;2024-02-28T03:44:37;1.83;;;0.80;;
77423;SDS011;66494;47.172;14.678;2024-02-28T03:45:38;1.27;;;0.80;;
77423;SDS011;66494;47.172;14.678;2024-02-28T03:46:39;1.42;;;0.95;;
77423;SDS011;66494;47.172;14.678;2024-02-28T03:48:39;1.98;;;0.70;;
77423;SDS011;66494;47.172;14.678;2024-02-28T03:49:39;2.05;;;1.23;;
77423;SDS011;66494;47.172;14.678;2024-02-28T03:51:40;1.63;;;0.93;;
77423;SDS011;66494;47.172;14.678;2024-02-28T03:52:41;1.63;;;0.90;;
77423;SDS011;66494;47.172;14.678;2024-02-28T03:53:41;3.90;;;1.25;;
77423;SDS011;66494;47.172;14.678;2024-02-28T03:54:42;4.95;;;0.93;;
77423;SDS011;66494;47.172;14.678;2024-02-28T03:55:42;1.80;;;0.85;;
77423;SDS011;66494;47.172;14.678;2024-02-28T03:56:44;1.40;;;0.95;;
77423;SDS011;66494;47.172;14.678;2024-02-28T03:57:47;1.17;;;0.70;;
77423;SDS011;66494;47.172;14.678;2024-02-28T03:58:48;2.17;;;0.82;;
77423;SDS011;66494;47.172;14.678;2024-02-28T03:59:48;1.95;;;1.23;;
77423;SDS011;66494;47.172;14.678;2024-02-28T04:01:48;1.80;;;0.90;;
77423;SDS011;66494;47.172;14.678;2024-02-28T04:03:49;2.13;;;0.68;;
77423;SDS011;66494;47.172;14.678;2024-02-28T04:04:49;1.73;;;0.90;;
77423;SDS011;66494;47.172;14.678;2024-02-28T04:05:49;1.38;;;0.90;;
77423;SDS011;66494;47.172;14.678;2024-02-28T04:06:50;3.60;;;0.68;;
77423;SDS011;66494;47.172;14.678;2024-02-28T04:07:50;2.22;;;1.17;;
77423;SDS011;66494;47.172;14.678;2024-02-28T04:08:50;2.85;;;1.02;;
77423;SDS011;66494;47.172;14.678;2024-02-28T04:09:50;1.70;;;0.75;;
77423;SDS011;66494;47.172;14.678;2024-02-28T04:10:50;1.63;;;0.98;;
77423;SDS011;66494;47.172;14.678;2024-02-28T04:11:51;1.45;;;0.90;;
77423;SDS011;66494;47.172;14.678;2024-02-28T04:12:51;3.10;;;0.75;;
77423;SDS011;66494;47.172;14.678;2024-02-28T04:13:51;4.50;;;0.60;;
77423;SDS011;66494;47.172;14.678;2024-02-28T04:15:52;0.88;;;0.60;;
77423;SDS011;66494;47.172;14.678;2024-02-28T04:16:52;1.50;;;1.00;;
77423;SDS011;66494;47.172;14.678;2024-02-28T04:18:53;2.80;;;0.60;;
77423;SDS011;66494;47.172;14.678;2024-02-28T04:20:53;2.00;;;1.23;;
77423;SDS011;66494;47.172;14.678;2024-02-28T04:21:53;4.47;;;1.30;;
77423;SDS011;66494;47.172;14.678;2024-02-28T04:23:54;4.22;;;1.70;;
77423;SDS011;66494;47.172;14.678;2024-02-28T04:25:55;2.47;;;1.63;;
77423;SDS011;66494;47.172;14.678;2024-02-28T04:27:58;1.08;;;0.63;;
77423;SDS011;66494;47.172;14.678;2024-02-28T04:28:58;1.38;;;0.90;;
77423;SDS011;66494;47.172;14.678;2024-02-28T04:29:59;3.83;;;1.50;;
77423;SDS011;66494;47.172;14.678;2024-02-28T04:30:59;1.67;;;0.90;;
77423;SDS011;66494;47.172;14.678;2024-02-28T04:31:59;1.65;;;1.13;;
77423;SDS011;66494;47.172;14.678;2024-02-28T04:32:59;1.20;;;0.70;;
77423;SDS011;66494;47.172;14.678;2024-02-28T04:34:00;2.90;;;0.95;;
77423;SDS011;66494;47.172;14.678;2024-02-28T04:35:00;1.15;;;0.70;;
77423;SDS011;66494;47.172;14.678;2024-02-28T04:36:00;2.08;;;0.73;;
77423;SDS011;66494;47.172;14.678;2024-02-28T04:37:00;1.20;;;0.40;;
77423;SDS011;66494;47.172;14.678;2024-02-28T04:38:01;1.15;;;0.80;;
77423;SDS011;66494;47.172;14.678;2024-02-28T04:39:01;2.42;;;1.10;;
77423;SDS011;66494;47.172;14.678;2024-02-28T04:40:02;4.57;;;1.02;;
77423;SDS011;66494;47.172;14.678;2024-02-28T04:41:02;1.52;;;0.63;;
77423;SDS011;66494;47.172;14.678;2024-02-28T04:42:03;0.98;;;0.68;;
77423;SDS011;66494;47.172;14.678;2024-02-28T04:43:03;1.50;;;1.10;;
77423;SDS011;66494;47.172;14.678;2024-02-28T04:45:04;4.90;;;0.70;;
77423;SDS011;66494;47.172;14.678;2024-02-28T04:47:04;1.77;;;0.88;;
77423;SDS011;66494;47.172;14.678;2024-02-28T04:49:05;2.35;;;1.20;;
77423;SDS011;66494;47.172;14.678;2024-02-28T04:50:05;2.22;;;1.02;;
77423;SDS011;66494;47.172;14.678;2024-02-28T04:51:06;1.23;;;0.85;;
77423;SDS011;66494;47.172;14.678;2024-02-28T04:52:06;1.42;;;0.85;;
77423;SDS011;66494;47.172;14.678;2024-02-28T04:53:06;1.17;;;0.93;;
77423;SDS011;66494;47.172;14.678;2024-02-28T04:55:07;1.88;;;1.42;;
77423;SDS011;66494;47.172;14.678;2024-02-28T04:56:07;1.10;;;0.60;;
77423;SDS011;66494;47.172;14.678;2024-02-28T04:57:07;1.30;;;0.82;;
77423;SDS011;66494;47.172;14.678;2024-02-28T04:59:08;1.33;;;0.70;;
77423;SDS011;66494;47.172;14.678;2024-02-28T05:00:09;1.65;;;0.70;;
77423;SDS011;66494;47.172;14.678;2024-02-28T05:02:09;1.40;;;0.90;;
77423;SDS011;66494;47.172;14.678;2024-02-28T05:04:10;0.45;;;0.38;;
77423;SDS011;66494;47.172;14.678;2024-02-28T05:05:10;1.38;;;0.60;;
77423;SDS011;66494;47.172;14.678;2024-02-28T05:06:10;1.35;;;0.80;;
77423;SDS011;66494;47.172;14.678;2024-02-28T05:07:11;0.82;;;0.75;;
77423;SDS011;66494;47.172;14.678;2024-02-28T05:08:11;1.38;;;0.60;;
77423;SDS011;66494;47.172;14.678;2024-02-28T05:09:11;0.85;;;0.68;;
77423;SDS011;66494;47.172;14.678;2024-02-28T05:10:12;1.73;;;1.10;;
77423;SDS011;66494;47.172;14.678;2024-02-28T05:11:12;2.72;;;0.90;;
77423;SDS011;66494;47.172;14.678;2024-02-28T05:13:12;1.13;;;0.80;;
77423;SDS011;66494;47.172;14.678;2024-02-28T05:15:13;1.30;;;0.85;;
77423;SDS011;66494;47.172;14.678;2024-02-28T05:17:14;1.67;;;0.83;;
77423;SDS011;66494;47.172;14.678;2024-02-28T05:18:14;3.17;;;1.15;;
77423;SDS011;66494;47.172;14.678;2024-02-28T05:19:15;1.77;;;1.10;;
77423;SDS011;66494;47.172;14.678;2024-02-28T05:20:17;1.70;;;0.80;;
77423;SDS011;66494;47.172;14.678;2024-02-28T05:21:18;2.67;;;0.90;;
77423;SDS011;66494;47.172;14.678;2024-02-28T05:23:18;1.67;;;1.00;;
77423;SDS011;66494;47.172;14.678;2024-02-28T05:25:18;1.83;;;1.10;;
77423;SDS011;66494;47.172;14.678;2024-02-28T05:27:19;1.70;;;0.90;;
77423;SDS011;66494;47.172;14.678;2024-02-28T05:28:19;1.30;;;1.05;;
77423;SDS011;66494;47.172;14.678;2024-02-28T05:30:20;1.02;;;0.70;;
77423;SDS011;66494;47.172;14.678;2024-02-28T05:32:21;1.13;;;0.68;;
77423;SDS011;66494;47.172;14.678;2024-02-28T05:34:21;2.00;;;0.82;;
77423;SDS011;66494;47.172;14.678;2024-02-28T05:36:22;2.00;;;1.30;;
77423;SDS011;66494;47.172;14.678;2024-02-28T05:37:22;1.20;;;0.80;;
77423;SDS011;66494;47.172;14.678;2024-02-28T05:39:23;1.10;;;0.80;;
77423;SDS011;66494;47.172;14.678;2024-02-28T05:40:23;2.40;;;1.25;;
77423;SDS011;66494;47.172;14.678;2024-02-28T05:42:24;2.23;;;1.53;;
77423;SDS011;66494;47.172;14.678;2024-02-28T05:43:25;1.55;;;1.10;;
77423;SDS011;66494;47.172;14.678;2024-02-28T05:44:26;2.42;;;1.08;;
77423;SDS011;66494;47.172;14.678;2024-02-28T05:46:26;1.48;;;0.70;;
77423;SDS011;66494;47.172;14.678;2024-02-28T05:48:28;1.95;;;1.33;;
77423;SDS011;66494;47.172;14.678;2024-02-28T05:49:28;1.83;;;1.15;;
77423;SDS011;66494;47.172;14.678;2024-02-28T05:51:29;2.60;;;1.10;;
77423;SDS011;66494;47.172;14.678;2024-02-28T05:52:30;2.47;;;1.15;;
77423;SDS011;66494;47.172;14.678;2024-02-28T05:54:36;0.80;;;0.60;;
77423;SDS011;66494;47.172;14.678;2024-02-28T05:55:36;2.00;;;1.25;;
77423;SDS011;66494;47.172;14.678;2024-02-28T05:56:36;1.40;;;1.15;;
77423;SDS011;66494;47.172;14.678;2024-02-28T05:57:37;2.58;;;1.20;;
77423;SDS011;66494;47.172;14.678;2024-02-28T05:59:38;0.77;;;0.57;;
77423;SDS011;66494;47.172;14.678;2024-02-28T06:00:38;2.60;;;1.85;;
77423;SDS011;66494;47.172;14.678;2024-02-28T06:01:38;1.92;;;1.08;;
77423;SDS011;66494;47.172;14.678;2024-02-28T06:02:40;1.88;;;1.10;;
77423;SDS011;66494;47.172;14.678;2024-02-28T06:03:41;1.27;;;1.02;;
77423;SDS011;66494;47.172;14.678;2024-02-28T06:05:42;0.98;;;0.68;;
77423;SDS011;66494;47.172;14.678;2024-02-28T06:07:42;1.70;;;1.10;;
77423;SDS011;66494;47.172;14.678;2024-02-28T06:08:43;1.80;;;0.90;;
77423;SDS011;66494;47.172;14.678;2024-02-28T06:09:43;1.17;;;0.90;;
77423;SDS011;66494;47.172;14.678;2024-02-28T06:10:43;1.88;;;1.08;;
77423;SDS011;66494;47.172;14.678;2024-02-28T06:11:46;2.38;;;1.33;;
77423;SDS011;66494;47.172;14.678;2024-02-28T06:12:46;3.00;;;1.17;;
77423;SDS011;66494;47.172;14.678;2024-02-28T06:13:46;1.38;;;0.93;;
77423;SDS011;66494;47.172;14.678;2024-02-28T06:14:49;2.58;;;1.25;;
77423;SDS011;66494;47.172;14.678;2024-02-28T06:15:50;2.53;;;1.20;;
77423;SDS011;66494;47.172;14.678;2024-02-28T06:17:50;2.75;;;0.90;;
77423;SDS011;66494;47.172;14.678;2024-02-28T06:18:50;1.38;;;0.95;;
77423;SDS011;66494;47.172;14.678;2024-02-28T06:19:50;1.50;;;0.93;;
77423;SDS011;66494;47.172;14.678;2024-02-28T06:21:51;1.02;;;0.80;;
77423;SDS011;66494;47.172;14.678;2024-02-28T06:23:51;2.10;;;0.93;;
77423;SDS011;66494;47.172;14.678;2024-02-28T06:25:52;1.45;;;1.05;;
77423;SDS011;66494;47.172;14.678;2024-02-28T06:26:52;2.13;;;1.20;;
77423;SDS011;66494;47.172;14.678;2024-02-28T06:27:52;2.13;;;1.35;;
77423;SDS011;66494;47.172;14.678;2024-02-28T06:28:53;3.10;;;1.38;;
77423;SDS011;66494;47.172;14.678;2024-02-28T06:29:53;2.47;;;1.83;;
77423;SDS011;66494;47.172;14.678;2024-02-28T06:30:53;2.42;;;1.30;;
77423;SDS011;66494;47.172;14.678;2024-02-28T06:32:58;5.60;;;1.08;;
77423;SDS011;66494;47.172;14.678;2024-02-28T06:33:59;3.90;;;1.50;;
77423;SDS011;66494;47.172;14.678;2024-02-28T06:34:59;2.00;;;0.98;;
77423;SDS011;66494;47.172;14.678;2024-02-28T06:37:00;2.88;;;1.75;;
77423;SDS011;66494;47.172;14.678;2024-02-28T06:38:00;1.40;;;0.80;;
77423;SDS011;66494;47.172;14.678;2024-02-28T06:39:01;3.65;;;1.40;;
77423;SDS011;66494;47.172;14.678;2024-02-28T06:40:02;1.90;;;1.00;;
77423;SDS011;66494;47.172;14.678;2024-02-28T06:41:04;0.80;;;0.60;;
77423;SDS011;66494;47.172;14.678;2024-02-28T06:43:05;2.37;;;1.17;;
77423;SDS011;66494;47.172;14.678;2024-02-28T06:44:05;2.40;;;0.85;;
77423;SDS011;66494;47.172;14.678;2024-02-28T06:45:07;0.90;;;0.70;;
77423;SDS011;66494;47.172;14.678;2024-02-28T06:46:08;1.08;;;0.88;;
77423;SDS011;66494;47.172;14.678;2024-02-28T06:47:09;4.40;;;1.10;;
77423;SDS011;66494;47.172;14.678;2024-02-28T06:48:09;1.70;;;0.98;;
77423;SDS011;66494;47.172;14.678;2024-02-28T06:49:10;2.08;;;0.95;;
77423;SDS011;66494;47.172;14.678;2024-02-28T06:50:10;1.50;;;0.90;;
77423;SDS011;66494;47.172;14.678;2024-02-28T06:52:11;2.78;;;1.10;;
77423;SDS011;66494;47.172;14.678;2024-02-28T06:53:11;2.47;;;1.30;;
77423;SDS011;66494;47.172;14.678;2024-02-28T06:54:11;2.80;;;1.13;;
77423;SDS011;66494;47.172;14.678;2024-02-28T06:55:12;4.18;;;1.20;;
77423;SDS011;66494;47.172;14.678;2024-02-28T06:56:14;3.60;;;1.48;;
77423;SDS011;66494;47.172;14.678;2024-02-28T06:58:14;1.45;;;1.00;;
77423;SDS011;66494;47.172;14.678;2024-02-28T06:59:15;1.80;;;1.13;;
77423;SDS011;66494;47.172;14.678;2024-02-28T07:00:15;2.83;;;1.45;;
77423;SDS011;66494;47.172;14.678;2024-02-28T07:01:17;2.60;;;1.38;;
77423;SDS011;66494;47.172;14.678;2024-02-28T07:03:17;3.20;;;1.37;;
77423;SDS011;66494;47.172;14.678;2024-02-28T07:04:17;2.72;;;1.30;;
77423;SDS011;66494;47.172;14.678;2024-02-28T07:05:17;2.97;;;1.85;;
77423;SDS011;66494;47.172;14.678;2024-02-28T07:06:18;4.57;;;1.63;;
77423;SDS011;66494;47.172;14.678;2024-02-28T07:07:18;3.53;;;2.38;;
77423;SDS011;66494;47.172;14.678;2024-02-28T07:08:18;2.83;;;1.90;;
77423;SDS011;66494;47.172;14.678;2024-02-28T07:09:18;4.05;;;1.95;;
77423;SDS011;66494;47.172;14.678;2024-02-28T07:11:19;3.75;;;2.28;;
77423;SDS011;66494;47.172;14.678;2024-02-28T07:13:19;15.48;;;8.88;;
77423;SDS011;66494;47.172;14.678;2024-02-28T07:15:20;12.00;;;7.83;;
77423;SDS011;66494;47.172;14.678;2024-02-28T07:16:21;9.60;;;3.85;;
77423;SDS011;66494;47.172;14.678;2024-02-28T07:17:21;5.35;;;3.28;;
77423;SDS011;66494;47.172;14.678;2024-02-28T07:18:23;2.90;;;1.73;;
77423;SDS011;66494;47.172;14.678;2024-02-28T07:19:25;4.53;;;2.20;;
77423;SDS011;66494;47.172;14.678;2024-02-28T07:21:26;2.70;;;1.50;;
77423;SDS011;66494;47.172;14.678;2024-02-28T07:22:26;5.10;;;1.95;;
77423;SDS011;66494;47.172;14.678;2024-02-28T07:23:27;2.53;;;1.38;;
77423;SDS011;66494;47.172;14.678;2024-02-28T07:24:27;3.08;;;1.60;;
77423;SDS011;66494;47.172;14.678;2024-02-28T07:25:27;3.83;;;2.10;;
77423;SDS011;66494;47.172;14.678;2024-02-28T07:27:28;3.70;;;1.88;;
77423;SDS011;66494;47.172;14.678;2024-02-28T07:29:28;3.83;;;2.10;;
77423;SDS011;66494;47.172;14.678;2024-02-28T07:30:29;3.92;;;2.50;;
77423;SDS011;66494;47.172;14.678;2024-02-28T07:32:29;6.82;;;3.03;;
77423;SDS011;66494;47.172;14.678;2024-02-28T07:33:34;4.13;;;2.58;;
77423;SDS011;66494;47.172;14.678;2024-02-28T07:35:48;9.45;;;4.40;;
77423;SDS011;66494;47.172;14.678;2024-02-28T07:36:48;7.65;;;3.50;;
77423;SDS011;66494;47.172;14.678;2024-02-28T07:37:49;6.85;;;3.92;;
77423;SDS011;66494;47.172;14.678;2024-02-28T07:38:49;4.82;;;3.03;;
77423;SDS011;66494;47.172;14.678;2024-02-28T07:40:49;4.32;;;2.67;;
77423;SDS011;66494;47.172;14.678;2024-02-28T07:42:50;6.75;;;3.50;;
77423;SDS011;66494;47.172;14.678;2024-02-28T07:43:51;6.20;;;4.50;;
77423;SDS011;66494;47.172;14.678;2024-02-28T07:45:56;10.77;;;6.03;;
77423;SDS011;66494;47.172;14.678;2024-02-28T07:47:56;9.77;;;5.63;;